Scroll down
FLIGHT INFORMATION
Federal Express (FedEx)

FDX9821

At Arrival Gate

OMDW
 EBLG
DATE: 2022-06-29
GATE:  -
GATE DEPARTURE: 10:13
TAKEOFF: 10:22
DATE: 2022-06-29
GATE:  -
LANDING: 16:49
GATE ARRIVAL: 16:54
FLIGHT DATA
Crew: 
Speed: 
512 kts
Altitude: 
34,020 ft
Stage Length: 
2,748.1 nm
Block Time: 
6.6 hrs
Flight Time: 
6.5 hrs
Fuel Used: 
116,667 lb
Cleared Route: OMDW SENPA RUDUK ULIVA SISOB PURLI ALPOB ROTAG ITMUB MODOG RAMKI RABLA SOLOB ALREP ORDIG MEDMA OBMON EGMOR ULADA ITESA JBL LAKSI ITUDA IVOBA COPPI DUSBO HFR VATIM RASMO ORSAL TOLDI NORGI ULAKO NIMAR ENABI ASTUM OBNAK EGSIS KITOT NWB SISIK MENLI CVO MENKU NOZ SOBAX NABSI TANSA AMAXI VEGES DIRMI RESTI ALANI KOR PIKAD IXONI ELVAS GARTA PARNA KRK OLGAT VIE ROKIB NAXAV UNIMI KPT TEDGO ABUKA RIDSU NONKO MISGI OLGIL SIPVU IDOVI ODVUX AGBUL LULAT TIPUT ROBON GESLO LNO EBLG
TRACK DATA
50,000 ft 1,000 kts
AIRCRAFT INFO AND CUMULATIVE STATS
Aircraft Type: 
B77LF
Registration: 
SELCAL: 
GLEM
MSN/LN: 
41064 / 967
Total Flights: 
4
Total Block Time: 
26.8 hrs
Total Flight Time: 
25.9 hrs
Total Fuel Used: 
450,366 lb
DATALINK LOG | Newest first | Current as of: 2022-08-16 08:09:29
LABEL SEQUENCE CONTENT Dn/Up
QD302116:54 16.8▼ Dn
QC251716:49▼ Dn
2U2812EBLG 292120Z VRB02KT CAVOK 22/13 Q1012 NOSIG▲ Up
2S2811EBLG▼ Dn
QB345510:22▼ Dn
QA254610:13 133.6▼ Dn
2U2043EDDL 291450Z AUTO VRB05KT CAVOK 28/10 Q1012 NOSIG▲ Up
2U2042EBLG 291450Z 36004KT 250V060 CAVOK 26/13 Q1013 NOSIG▲ Up
2U2042OMDW 291500Z 31010KT 5000 DU NSC 34/26 Q0995 NOSIG▲ Up
2S2041OMDW EBLG EDDL▼ Dn
A31840CLEARED TO EBLG VIA SENPA N571 ALPOB L768 ULADA L768 VATIM L550 NWB N697 MENLI L677 CVO L617 NOZ L617 TANSA UL613 KOR UL53 OLGAT VIE ROKIB NAXAV UNIMI KPT TEDGO ABUKA L608 NONKO UZ211 MISGI Z104 GESLO N852 LNO LNO5X. SQUAWK 2472.▲ Up
B31839OMDW EBLG FDX9821 N885FD ▼ Dn
Q01738[LINK ACK]▲ Up
Q01738[LINK TEST]▼ Dn


AIRCRAFT HISTORY
FLIGHT DATE FLIGHT NO. ORIGIN DESTINATION CLEARED ROUTE BLOCK TIME FLIGHT TIME FUEL USED PILOT
2022-06-29FDX9821OMDW EBLG OMDW SENPA RUDUK ULIVA SISOB PURLI ALPOB ROTAG ITMUB MODOG RAMKI RABLA SOLOB ALREP ORDIG MEDMA OBMON EGMOR ULADA ITESA JBL LAKSI ITUDA IVOBA COPPI DUSBO HFR VATIM RASMO ORSAL TOLDI NORGI ULAKO NIMAR ENABI ASTUM OBNAK EGSIS KITOT NWB SISIK MENLI CVO MENKU NOZ SOBAX NABSI TANSA AMAXI VEGES DIRMI RESTI ALANI KOR PIKAD IXONI ELVAS GARTA PARNA KRK OLGAT VIE ROKIB NAXAV UNIMI KPT TEDGO ABUKA RIDSU NONKO MISGI OLGIL SIPVU IDOVI ODVUX AGBUL LULAT TIPUT ROBON GESLO LNO EBLG6.6 hrs6.5 hrs116,667 lbAllan Burek
2022-05-23FDX5030ZGGG OMDW ZGGG VIBOS ZUH KIBAS BOKAT ADBIN TOMUD BIGRO LH BHY ALEKI NIKUK WUY UVUNO BSE MEPAN ADBAG LXI SGM GULOT MAKUL GMA LINSO LSO 54LSO CHILA CTG DAKID SUMAG CEA JJS AGROM KINKI OTABA NIPAD OPONI DOSAT TEGIG NNP TAMID NINAT DUBOX AAU AKTIV BETKU KARKU ANKOX RASKI VAXIM RAGMA VUSET UMEKO BORER PASOV PUXIL VAXAS NALNU UMAMI OMDW7.8 hrs7.5 hrs137,879 lbAllan Burek
2021-07-21FDX5384VIDP ZGGG VIDP ALI PAVRU LKN BODOG PPT MONDA BIKIK TEBID RAJ BOGEP AAT TEBUL ANSOS LSO LINSO GMA MAKUL GULOT SGM LXI ADBAG MEPAN BSE DUDIT LBN ATLAT BIPOP AVPAM GYA ZGGG4.8 hrs4.6 hrs78,390 lbAllan Burek
2021-02-22FDX5384LFPG VIDP LFPG PG270 PG274 PG278 NEPAR RANUX MEDOX VALEK LIPNI LIMGO BOMBI KOMIB SULUS LONLI KULOK OKG LAGAR POLON ABERO OGARA LUHEZ KAWAD KEDUG BUGOR ABUTO UNIGA MAKOD TALID UBONA BEPLU OKLOT RONUM UMSIS OLBEG RUTUB GEDNI AMUTI ST WGD TUSAB NOKLI DUBOS OLINU UP NIBAN AZABI AKT BALIG GIRUL INRED TIROM BEDEV ATASH DOKAN MAVAX ABDAN NINOP LEMOD PAGMA VUVEN NEVIV PATOX MESRA DOBAT REGET DI LEBIB JHANG SEMKO SAKUV PATNI SULOM ASARI ELKUX IGINO VIDP7.5 hrs7.3 hrs117,430 lbAllan Burek